METAR AND TAF INFORMATION
METAR FOR EPGD
ADDS - METARS form results

(1104 UTC 18 August 2019)
Data provider http://aviationweather.gov/metar/data/
 
METAR text: EPGD 181100Z 18009KT 9999 FEW049 23/14 Q1008
Conditions at: EPGD (GDANSK/REBIECHOW, PL) observed 1100 UTC 18 August 2019
Temperature: 23.0°C (73°F)
Dewpoint: 14.0°C (57°F) [RH = 57%]
Pressure (altimeter): 29.76 inches Hg (1008.0 mb)
Winds: from the S (180 degrees) at 10 MPH (9 knots; 4.6 m/s)
Visibility: 6 or more miles (10+ km)
Ceiling: at least 12,000 feet AGL
Clouds: few clouds at 4900 feet AGL
Weather: no significant weather observed at this time

METAR text: EPGD 181030Z 18008KT 140V200 9999 BKN049 23/14 Q1008
Conditions at: EPGD (GDANSK/REBIECHOW, PL) observed 1030 UTC 18 August 2019
Temperature: 23.0°C (73°F)
Dewpoint: 14.0°C (57°F) [RH = 57%]
Pressure (altimeter): 29.76 inches Hg (1008.0 mb)
Winds: from the S (180 degrees) at 9 MPH (8 knots; 4.1 m/s)
Visibility: 6 or more miles (10+ km)
Ceiling: 4900 feet AGL
Clouds: broken clouds at 4900 feet AGL
Weather: no significant weather observed at this time

Forecast for: EPGD (GDANSK/REBIECHOW, PL)
Text: TAF EPGD 180530Z 1806/1906 17010KT CAVOK
Forecast period: 0600 UTC 18 August 2019 to 0600 UTC 19 August 2019
Forecast type: FROM: standard forecast or significant change
Winds: from the S (170 degrees) at 12 MPH (10 knots; 5.1 m/s)
Visibility: 6 or more miles 10+ km)
Ceiling: unknown
Clouds: missing
Weather: NSW  (no significant weather)
Text: TEMPO 1818/1906 BKN014
Forecast period: 1800 UTC 18 August 2019 to 0600 UTC 19 August 2019
Forecast type: TEMPORARY: The following changes expected for less than half the time period
Visibility: missing
Ceiling: 1400 feet AGL
Clouds: broken clouds at 1400 feet AGL
Weather: no significant weather forecast for this period
Text: PROB40
Forecast period: 2200 UTC 18 August 2019 to 0200 UTC 19 August 2019
Forecast type: TEMPORARY: The following changes expected for less than half the time period
Visibility: missing
Ceiling: 2000 feet AGL
Clouds: broken clouds at 2000 feet AGL
Weather: SHRA  (rain showers)

 AIRPORT MAP

 RUNWAY INFORMATION
Runway 11 Runway length 9186 ft Runway width 148 ft
Runway elevation 450 ft Runway displaced threshold 0 ft Runway heading 113
Runway 29 Runway length 9186 ft Runway width 148 ft
Runway elevation 489 ft Runway displaced threshold 0 ft Runway heading 293

 AIRPORT FREQUENCIES
Type APP Name GDANSK APP Frequency 127.275 MHZ
Type ATIS Name ATIS Frequency 129.625 MHZ
Type TWR Name GDANSK TWR Frequency 118.1 MHZ

 AIRPORT NEAR NAVIGATION AIDS
Type NDB Name Gdansk Frequency 322 KHZ
Type VOR-DME Name Kartuzy Frequency 113200 KHZ
Type NDB Name Gdansk Frequency 383 KHZ



Powered by Virtual Airlines Manager [v2.6.2]